sensor_id;sensor_type;location;lat;lon;timestamp;P1;durP1;ratioP1;P2;durP2;ratioP2
64235;SDS011;50564;47.402;9.740;2022-12-07T00:03:37;21.73;;;14.15;;
64235;SDS011;50564;47.402;9.740;2022-12-07T00:08:39;24.88;;;15.65;;
64235;SDS011;50564;47.402;9.740;2022-12-07T00:13:40;22.67;;;14.48;;
64235;SDS011;50564;47.402;9.740;2022-12-07T00:18:41;21.15;;;14.07;;
64235;SDS011;50564;47.402;9.740;2022-12-07T00:23:42;19.05;;;13.00;;
64235;SDS011;50564;47.402;9.740;2022-12-07T00:28:47;20.48;;;13.15;;
64235;SDS011;50564;47.402;9.740;2022-12-07T00:33:49;19.05;;;12.68;;
64235;SDS011;50564;47.402;9.740;2022-12-07T00:38:50;21.08;;;12.77;;
64235;SDS011;50564;47.402;9.740;2022-12-07T00:43:51;76.75;;;38.10;;
64235;SDS011;50564;47.402;9.740;2022-12-07T00:48:52;31.40;;;18.30;;
64235;SDS011;50564;47.402;9.740;2022-12-07T00:53:53;24.08;;;16.63;;
64235;SDS011;50564;47.402;9.740;2022-12-07T00:58:57;23.15;;;14.88;;
64235;SDS011;50564;47.402;9.740;2022-12-07T01:03:58;20.30;;;12.43;;
64235;SDS011;50564;47.402;9.740;2022-12-07T01:09:01;20.25;;;12.77;;
64235;SDS011;50564;47.402;9.740;2022-12-07T01:14:03;21.00;;;13.80;;
64235;SDS011;50564;47.402;9.740;2022-12-07T01:19:04;21.75;;;14.02;;
64235;SDS011;50564;47.402;9.740;2022-12-07T01:24:05;21.23;;;14.13;;
64235;SDS011;50564;47.402;9.740;2022-12-07T01:29:07;19.67;;;12.50;;
64235;SDS011;50564;47.402;9.740;2022-12-07T01:34:08;56.17;;;32.45;;
64235;SDS011;50564;47.402;9.740;2022-12-07T01:39:09;59.42;;;34.92;;
64235;SDS011;50564;47.402;9.740;2022-12-07T01:49:18;62.78;;;39.53;;
64235;SDS011;50564;47.402;9.740;2022-12-07T01:54:30;26.90;;;15.65;;
64235;SDS011;50564;47.402;9.740;2022-12-07T01:59:31;29.88;;;19.55;;
64235;SDS011;50564;47.402;9.740;2022-12-07T02:04:32;27.65;;;17.73;;
64235;SDS011;50564;47.402;9.740;2022-12-07T02:09:32;21.00;;;15.93;;
64235;SDS011;50564;47.402;9.740;2022-12-07T02:14:33;22.17;;;13.90;;
64235;SDS011;50564;47.402;9.740;2022-12-07T02:30:00;16.30;;;11.43;;
64235;SDS011;50564;47.402;9.740;2022-12-07T02:35:11;14.45;;;10.35;;
64235;SDS011;50564;47.402;9.740;2022-12-07T02:40:20;15.85;;;8.65;;
64235;SDS011;50564;47.402;9.740;2022-12-07T02:45:25;17.73;;;12.35;;
64235;SDS011;50564;47.402;9.740;2022-12-07T02:50:28;13.13;;;9.30;;
64235;SDS011;50564;47.402;9.740;2022-12-07T02:55:31;15.10;;;10.10;;
64235;SDS011;50564;47.402;9.740;2022-12-07T03:00:39;14.60;;;8.70;;
64235;SDS011;50564;47.402;9.740;2022-12-07T03:11:09;16.65;;;11.15;;
64235;SDS011;50564;47.402;9.740;2022-12-07T03:16:19;15.98;;;10.30;;
64235;SDS011;50564;47.402;9.740;2022-12-07T03:21:23;15.43;;;9.82;;
64235;SDS011;50564;47.402;9.740;2022-12-07T03:26:29;15.80;;;8.63;;
64235;SDS011;50564;47.402;9.740;2022-12-07T03:31:33;13.82;;;8.60;;
64235;SDS011;50564;47.402;9.740;2022-12-07T03:36:51;13.80;;;8.35;;
64235;SDS011;50564;47.402;9.740;2022-12-07T03:41:55;13.05;;;9.23;;
64235;SDS011;50564;47.402;9.740;2022-12-07T03:52:24;14.00;;;7.80;;
64235;SDS011;50564;47.402;9.740;2022-12-07T03:57:38;14.93;;;8.40;;
64235;SDS011;50564;47.402;9.740;2022-12-07T04:02:39;11.35;;;7.50;;
64235;SDS011;50564;47.402;9.740;2022-12-07T04:07:41;11.63;;;7.57;;
64235;SDS011;50564;47.402;9.740;2022-12-07T04:12:41;12.98;;;8.77;;
64235;SDS011;50564;47.402;9.740;2022-12-07T04:17:42;12.90;;;8.43;;
64235;SDS011;50564;47.402;9.740;2022-12-07T04:22:43;14.05;;;9.77;;
64235;SDS011;50564;47.402;9.740;2022-12-07T04:27:43;13.68;;;8.43;;
64235;SDS011;50564;47.402;9.740;2022-12-07T04:32:44;12.65;;;8.45;;
64235;SDS011;50564;47.402;9.740;2022-12-07T04:37:44;13.73;;;7.68;;
64235;SDS011;50564;47.402;9.740;2022-12-07T04:42:45;13.60;;;8.23;;
64235;SDS011;50564;47.402;9.740;2022-12-07T04:47:45;13.10;;;8.02;;
64235;SDS011;50564;47.402;9.740;2022-12-07T04:52:46;12.07;;;8.18;;
64235;SDS011;50564;47.402;9.740;2022-12-07T04:57:47;11.02;;;7.28;;
64235;SDS011;50564;47.402;9.740;2022-12-07T05:02:47;11.50;;;7.47;;
64235;SDS011;50564;47.402;9.740;2022-12-07T05:07:48;11.70;;;7.13;;
64235;SDS011;50564;47.402;9.740;2022-12-07T05:12:48;12.85;;;8.60;;
64235;SDS011;50564;47.402;9.740;2022-12-07T05:17:49;15.30;;;8.80;;
64235;SDS011;50564;47.402;9.740;2022-12-07T05:22:49;13.75;;;8.60;;
64235;SDS011;50564;47.402;9.740;2022-12-07T05:27:50;13.07;;;7.70;;
64235;SDS011;50564;47.402;9.740;2022-12-07T05:32:51;11.13;;;7.82;;
64235;SDS011;50564;47.402;9.740;2022-12-07T05:37:52;11.68;;;7.43;;
64235;SDS011;50564;47.402;9.740;2022-12-07T05:42:52;12.25;;;8.93;;
64235;SDS011;50564;47.402;9.740;2022-12-07T05:47:53;14.00;;;9.23;;
64235;SDS011;50564;47.402;9.740;2022-12-07T05:52:53;15.00;;;10.07;;
64235;SDS011;50564;47.402;9.740;2022-12-07T05:57:54;14.20;;;9.48;;
64235;SDS011;50564;47.402;9.740;2022-12-07T06:03:14;14.23;;;10.07;;
64235;SDS011;50564;47.402;9.740;2022-12-07T06:08:14;17.63;;;11.57;;
64235;SDS011;50564;47.402;9.740;2022-12-07T06:13:15;17.40;;;11.95;;
64235;SDS011;50564;47.402;9.740;2022-12-07T06:18:15;16.08;;;10.35;;
64235;SDS011;50564;47.402;9.740;2022-12-07T06:23:16;16.67;;;11.43;;
64235;SDS011;50564;47.402;9.740;2022-12-07T06:28:17;15.40;;;11.32;;
64235;SDS011;50564;47.402;9.740;2022-12-07T06:33:17;16.10;;;10.90;;
64235;SDS011;50564;47.402;9.740;2022-12-07T06:38:18;20.67;;;11.68;;
64235;SDS011;50564;47.402;9.740;2022-12-07T06:43:18;19.60;;;12.38;;
64235;SDS011;50564;47.402;9.740;2022-12-07T06:48:19;27.60;;;17.38;;
64235;SDS011;50564;47.402;9.740;2022-12-07T06:53:20;29.40;;;19.30;;
64235;SDS011;50564;47.402;9.740;2022-12-07T06:58:21;24.98;;;16.00;;
64235;SDS011;50564;47.402;9.740;2022-12-07T07:03:21;25.20;;;15.35;;
64235;SDS011;50564;47.402;9.740;2022-12-07T07:08:22;23.90;;;15.80;;
64235;SDS011;50564;47.402;9.740;2022-12-07T07:13:23;24.23;;;15.15;;
64235;SDS011;50564;47.402;9.740;2022-12-07T07:18:23;24.70;;;15.65;;
64235;SDS011;50564;47.402;9.740;2022-12-07T07:23:24;23.55;;;13.38;;
64235;SDS011;50564;47.402;9.740;2022-12-07T07:28:25;18.20;;;13.38;;
64235;SDS011;50564;47.402;9.740;2022-12-07T07:33:26;22.88;;;14.77;;
64235;SDS011;50564;47.402;9.740;2022-12-07T07:38:27;24.20;;;16.30;;
64235;SDS011;50564;47.402;9.740;2022-12-07T07:43:27;20.35;;;13.60;;
64235;SDS011;50564;47.402;9.740;2022-12-07T07:48:28;21.50;;;13.88;;
64235;SDS011;50564;47.402;9.740;2022-12-07T07:53:28;23.80;;;13.85;;
64235;SDS011;50564;47.402;9.740;2022-12-07T07:58:29;18.67;;;11.63;;
64235;SDS011;50564;47.402;9.740;2022-12-07T08:03:30;19.15;;;13.45;;
64235;SDS011;50564;47.402;9.740;2022-12-07T08:08:30;20.52;;;13.02;;
64235;SDS011;50564;47.402;9.740;2022-12-07T08:13:32;22.23;;;14.43;;
64235;SDS011;50564;47.402;9.740;2022-12-07T08:18:36;23.60;;;16.58;;
64235;SDS011;50564;47.402;9.740;2022-12-07T08:23:37;21.52;;;15.20;;
64235;SDS011;50564;47.402;9.740;2022-12-07T08:28:38;21.83;;;15.20;;
64235;SDS011;50564;47.402;9.740;2022-12-07T08:33:38;22.20;;;15.20;;
64235;SDS011;50564;47.402;9.740;2022-12-07T08:38:40;33.45;;;19.80;;
64235;SDS011;50564;47.402;9.740;2022-12-07T08:43:41;25.70;;;19.45;;
64235;SDS011;50564;47.402;9.740;2022-12-07T08:48:52;28.88;;;18.73;;
64235;SDS011;50564;47.402;9.740;2022-12-07T08:53:54;24.00;;;14.05;;
64235;SDS011;50564;47.402;9.740;2022-12-07T08:58:57;18.65;;;13.63;;
64235;SDS011;50564;47.402;9.740;2022-12-07T09:03:58;20.85;;;13.45;;
64235;SDS011;50564;47.402;9.740;2022-12-07T09:08:58;20.55;;;13.07;;
64235;SDS011;50564;47.402;9.740;2022-12-07T09:14:00;20.92;;;13.85;;
64235;SDS011;50564;47.402;9.740;2022-12-07T09:19:00;25.77;;;15.68;;
64235;SDS011;50564;47.402;9.740;2022-12-07T09:24:01;24.40;;;14.85;;
64235;SDS011;50564;47.402;9.740;2022-12-07T09:29:02;20.73;;;13.07;;
64235;SDS011;50564;47.402;9.740;2022-12-07T09:34:03;20.55;;;13.63;;
64235;SDS011;50564;47.402;9.740;2022-12-07T09:39:05;19.85;;;13.68;;
64235;SDS011;50564;47.402;9.740;2022-12-07T09:44:14;21.02;;;12.93;;
64235;SDS011;50564;47.402;9.740;2022-12-07T09:49:27;28.42;;;17.17;;
64235;SDS011;50564;47.402;9.740;2022-12-07T09:54:29;43.58;;;29.17;;
64235;SDS011;50564;47.402;9.740;2022-12-07T09:59:32;27.38;;;18.40;;
64235;SDS011;50564;47.402;9.740;2022-12-07T10:04:33;28.75;;;19.15;;
64235;SDS011;50564;47.402;9.740;2022-12-07T10:09:33;38.55;;;21.48;;
64235;SDS011;50564;47.402;9.740;2022-12-07T10:14:39;26.70;;;16.00;;
64235;SDS011;50564;47.402;9.740;2022-12-07T10:19:52;20.20;;;13.57;;
64235;SDS011;50564;47.402;9.740;2022-12-07T10:24:53;27.95;;;17.90;;
64235;SDS011;50564;47.402;9.740;2022-12-07T10:29:53;25.67;;;16.33;;
64235;SDS011;50564;47.402;9.740;2022-12-07T10:40:26;23.40;;;15.73;;
64235;SDS011;50564;47.402;9.740;2022-12-07T10:45:30;26.63;;;16.58;;
64235;SDS011;50564;47.402;9.740;2022-12-07T11:05:55;24.90;;;15.40;;
64235;SDS011;50564;47.402;9.740;2022-12-07T11:16:52;30.08;;;16.42;;
64235;SDS011;50564;47.402;9.740;2022-12-07T11:22:13;22.73;;;15.52;;
64235;SDS011;50564;47.402;9.740;2022-12-07T11:38:17;28.08;;;17.15;;
64235;SDS011;50564;47.402;9.740;2022-12-07T11:43:28;24.75;;;16.92;;
64235;SDS011;50564;47.402;9.740;2022-12-07T11:53:49;27.75;;;17.15;;
64235;SDS011;50564;47.402;9.740;2022-12-07T12:09:17;24.90;;;15.50;;
64235;SDS011;50564;47.402;9.740;2022-12-07T12:19:41;31.05;;;17.52;;
64235;SDS011;50564;47.402;9.740;2022-12-07T12:24:49;28.42;;;17.90;;
64235;SDS011;50564;47.402;9.740;2022-12-07T12:29:56;32.93;;;19.57;;
64235;SDS011;50564;47.402;9.740;2022-12-07T12:35:20;32.85;;;19.20;;
64235;SDS011;50564;47.402;9.740;2022-12-07T12:50:34;28.67;;;19.45;;
64235;SDS011;50564;47.402;9.740;2022-12-07T13:00:42;38.00;;;22.05;;
64235;SDS011;50564;47.402;9.740;2022-12-07T13:05:43;34.08;;;21.80;;
64235;SDS011;50564;47.402;9.740;2022-12-07T13:10:44;37.33;;;20.95;;
64235;SDS011;50564;47.402;9.740;2022-12-07T13:15:56;29.38;;;19.42;;
64235;SDS011;50564;47.402;9.740;2022-12-07T13:26:19;39.50;;;23.02;;
64235;SDS011;50564;47.402;9.740;2022-12-07T13:31:25;36.53;;;22.23;;
64235;SDS011;50564;47.402;9.740;2022-12-07T13:36:37;35.33;;;19.23;;
64235;SDS011;50564;47.402;9.740;2022-12-07T13:41:43;32.20;;;19.20;;
64235;SDS011;50564;47.402;9.740;2022-12-07T13:57:20;31.70;;;18.45;;
64235;SDS011;50564;47.402;9.740;2022-12-07T14:12:26;32.63;;;20.67;;
64235;SDS011;50564;47.402;9.740;2022-12-07T14:17:28;34.92;;;22.65;;
64235;SDS011;50564;47.402;9.740;2022-12-07T14:22:36;39.17;;;26.40;;
64235;SDS011;50564;47.402;9.740;2022-12-07T14:27:38;34.70;;;22.08;;
64235;SDS011;50564;47.402;9.740;2022-12-07T14:32:38;34.05;;;20.52;;
64235;SDS011;50564;47.402;9.740;2022-12-07T14:37:42;36.22;;;22.83;;
64235;SDS011;50564;47.402;9.740;2022-12-07T14:42:45;36.03;;;22.58;;
64235;SDS011;50564;47.402;9.740;2022-12-07T14:47:47;32.85;;;22.05;;
64235;SDS011;50564;47.402;9.740;2022-12-07T14:53:30;30.23;;;19.33;;
64235;SDS011;50564;47.402;9.740;2022-12-07T14:58:13;29.95;;;17.60;;
64235;SDS011;50564;47.402;9.740;2022-12-07T15:03:15;31.38;;;18.50;;
64235;SDS011;50564;47.402;9.740;2022-12-07T15:08:15;29.58;;;16.58;;
64235;SDS011;50564;47.402;9.740;2022-12-07T15:13:16;30.08;;;17.30;;
64235;SDS011;50564;47.402;9.740;2022-12-07T15:18:35;27.58;;;15.82;;
64235;SDS011;50564;47.402;9.740;2022-12-07T15:23:35;27.35;;;16.38;;
64235;SDS011;50564;47.402;9.740;2022-12-07T15:28:36;29.20;;;15.52;;
64235;SDS011;50564;47.402;9.740;2022-12-07T15:33:36;28.05;;;16.77;;
64235;SDS011;50564;47.402;9.740;2022-12-07T15:38:37;33.97;;;18.60;;
64235;SDS011;50564;47.402;9.740;2022-12-07T15:43:38;29.10;;;16.30;;
64235;SDS011;50564;47.402;9.740;2022-12-07T15:48:57;34.00;;;23.55;;
64235;SDS011;50564;47.402;9.740;2022-12-07T15:53:58;37.20;;;25.60;;
64235;SDS011;50564;47.402;9.740;2022-12-07T15:58:59;55.53;;;39.38;;
64235;SDS011;50564;47.402;9.740;2022-12-07T16:03:59;44.30;;;27.48;;
64235;SDS011;50564;47.402;9.740;2022-12-07T16:09:00;40.47;;;27.52;;
64235;SDS011;50564;47.402;9.740;2022-12-07T16:14:01;32.55;;;21.10;;
64235;SDS011;50564;47.402;9.740;2022-12-07T16:19:01;31.30;;;19.65;;
64235;SDS011;50564;47.402;9.740;2022-12-07T16:24:03;29.05;;;17.60;;
64235;SDS011;50564;47.402;9.740;2022-12-07T16:29:05;33.83;;;20.98;;
64235;SDS011;50564;47.402;9.740;2022-12-07T16:34:06;35.13;;;21.42;;
64235;SDS011;50564;47.402;9.740;2022-12-07T16:39:08;32.47;;;20.05;;
64235;SDS011;50564;47.402;9.740;2022-12-07T16:44:09;32.70;;;18.42;;
64235;SDS011;50564;47.402;9.740;2022-12-07T16:49:13;34.05;;;19.77;;
64235;SDS011;50564;47.402;9.740;2022-12-07T16:54:14;23.83;;;15.38;;
64235;SDS011;50564;47.402;9.740;2022-12-07T16:59:15;36.05;;;20.45;;
64235;SDS011;50564;47.402;9.740;2022-12-07T17:04:15;34.40;;;20.48;;
64235;SDS011;50564;47.402;9.740;2022-12-07T17:09:16;32.13;;;19.08;;
64235;SDS011;50564;47.402;9.740;2022-12-07T17:14:16;33.67;;;20.73;;
64235;SDS011;50564;47.402;9.740;2022-12-07T17:19:36;39.90;;;23.65;;
64235;SDS011;50564;47.402;9.740;2022-12-07T17:24:36;42.83;;;24.90;;
64235;SDS011;50564;47.402;9.740;2022-12-07T17:29:37;48.13;;;25.27;;
64235;SDS011;50564;47.402;9.740;2022-12-07T17:34:38;40.17;;;23.17;;
64235;SDS011;50564;47.402;9.740;2022-12-07T17:39:38;45.85;;;26.55;;
64235;SDS011;50564;47.402;9.740;2022-12-07T17:44:39;36.35;;;23.50;;
64235;SDS011;50564;47.402;9.740;2022-12-07T17:49:40;37.28;;;21.65;;
64235;SDS011;50564;47.402;9.740;2022-12-07T17:54:41;44.40;;;26.27;;
64235;SDS011;50564;47.402;9.740;2022-12-07T17:59:41;40.28;;;24.50;;
64235;SDS011;50564;47.402;9.740;2022-12-07T18:04:42;33.90;;;21.58;;
64235;SDS011;50564;47.402;9.740;2022-12-07T18:09:43;34.03;;;22.48;;
64235;SDS011;50564;47.402;9.740;2022-12-07T18:14:44;36.10;;;22.40;;
64235;SDS011;50564;47.402;9.740;2022-12-07T18:19:45;32.42;;;21.15;;
64235;SDS011;50564;47.402;9.740;2022-12-07T18:24:47;33.33;;;20.52;;
64235;SDS011;50564;47.402;9.740;2022-12-07T18:29:48;32.60;;;20.73;;
64235;SDS011;50564;47.402;9.740;2022-12-07T18:34:49;31.08;;;20.48;;
64235;SDS011;50564;47.402;9.740;2022-12-07T18:39:51;31.00;;;19.95;;
64235;SDS011;50564;47.402;9.740;2022-12-07T18:44:55;34.78;;;21.50;;
64235;SDS011;50564;47.402;9.740;2022-12-07T18:49:55;31.40;;;21.08;;
64235;SDS011;50564;47.402;9.740;2022-12-07T18:54:56;32.65;;;20.63;;
64235;SDS011;50564;47.402;9.740;2022-12-07T18:59:57;36.38;;;24.15;;
64235;SDS011;50564;47.402;9.740;2022-12-07T19:04:58;31.98;;;20.75;;
64235;SDS011;50564;47.402;9.740;2022-12-07T19:10:01;32.30;;;19.42;;
64235;SDS011;50564;47.402;9.740;2022-12-07T19:15:04;29.95;;;18.42;;
64235;SDS011;50564;47.402;9.740;2022-12-07T19:20:07;27.58;;;17.55;;
64235;SDS011;50564;47.402;9.740;2022-12-07T19:25:11;33.45;;;18.95;;
64235;SDS011;50564;47.402;9.740;2022-12-07T19:30:11;27.77;;;17.52;;
64235;SDS011;50564;47.402;9.740;2022-12-07T19:35:13;26.80;;;16.45;;
64235;SDS011;50564;47.402;9.740;2022-12-07T19:40:15;26.60;;;16.13;;
64235;SDS011;50564;47.402;9.740;2022-12-07T19:45:16;28.83;;;16.05;;
64235;SDS011;50564;47.402;9.740;2022-12-07T19:50:17;28.45;;;16.30;;
64235;SDS011;50564;47.402;9.740;2022-12-07T19:55:18;28.90;;;17.75;;
64235;SDS011;50564;47.402;9.740;2022-12-07T20:00:19;27.23;;;14.98;;
64235;SDS011;50564;47.402;9.740;2022-12-07T20:05:20;26.27;;;15.57;;
64235;SDS011;50564;47.402;9.740;2022-12-07T20:10:25;21.63;;;13.32;;
64235;SDS011;50564;47.402;9.740;2022-12-07T20:15:26;21.90;;;12.80;;
64235;SDS011;50564;47.402;9.740;2022-12-07T20:20:27;21.08;;;13.35;;
64235;SDS011;50564;47.402;9.740;2022-12-07T20:25:29;21.15;;;13.18;;
64235;SDS011;50564;47.402;9.740;2022-12-07T20:30:30;26.05;;;14.98;;
64235;SDS011;50564;47.402;9.740;2022-12-07T20:35:31;22.13;;;13.25;;
64235;SDS011;50564;47.402;9.740;2022-12-07T20:40:32;23.45;;;13.85;;
64235;SDS011;50564;47.402;9.740;2022-12-07T20:45:33;19.95;;;12.55;;
64235;SDS011;50564;47.402;9.740;2022-12-07T20:50:34;20.88;;;12.95;;
64235;SDS011;50564;47.402;9.740;2022-12-07T20:55:35;25.02;;;14.38;;
64235;SDS011;50564;47.402;9.740;2022-12-07T21:00:37;31.70;;;16.25;;
64235;SDS011;50564;47.402;9.740;2022-12-07T21:05:39;20.98;;;13.20;;
64235;SDS011;50564;47.402;9.740;2022-12-07T21:10:40;20.60;;;12.13;;
64235;SDS011;50564;47.402;9.740;2022-12-07T21:15:41;20.33;;;12.68;;
64235;SDS011;50564;47.402;9.740;2022-12-07T21:20:42;17.80;;;11.60;;
64235;SDS011;50564;47.402;9.740;2022-12-07T21:25:42;17.70;;;11.07;;
64235;SDS011;50564;47.402;9.740;2022-12-07T21:30:43;20.73;;;12.90;;
64235;SDS011;50564;47.402;9.740;2022-12-07T21:35:44;22.67;;;15.02;;
64235;SDS011;50564;47.402;9.740;2022-12-07T21:40:44;68.00;;;36.10;;
64235;SDS011;50564;47.402;9.740;2022-12-07T21:45:49;29.05;;;19.00;;
64235;SDS011;50564;47.402;9.740;2022-12-07T21:50:51;28.35;;;17.45;;
64235;SDS011;50564;47.402;9.740;2022-12-07T21:55:52;24.98;;;14.98;;
64235;SDS011;50564;47.402;9.740;2022-12-07T22:00:53;20.50;;;12.60;;
64235;SDS011;50564;47.402;9.740;2022-12-07T22:06:00;21.52;;;11.98;;
64235;SDS011;50564;47.402;9.740;2022-12-07T22:11:01;20.15;;;11.70;;
64235;SDS011;50564;47.402;9.740;2022-12-07T22:16:02;18.88;;;11.23;;
64235;SDS011;50564;47.402;9.740;2022-12-07T22:21:03;19.50;;;11.00;;
64235;SDS011;50564;47.402;9.740;2022-12-07T22:26:08;19.55;;;11.18;;
64235;SDS011;50564;47.402;9.740;2022-12-07T22:31:12;20.33;;;11.45;;
64235;SDS011;50564;47.402;9.740;2022-12-07T22:36:14;21.90;;;12.30;;
64235;SDS011;50564;47.402;9.740;2022-12-07T22:41:16;19.63;;;11.70;;
64235;SDS011;50564;47.402;9.740;2022-12-07T22:46:19;26.20;;;15.02;;
64235;SDS011;50564;47.402;9.740;2022-12-07T22:51:21;31.67;;;18.75;;
64235;SDS011;50564;47.402;9.740;2022-12-07T22:56:30;35.70;;;22.23;;
64235;SDS011;50564;47.402;9.740;2022-12-07T23:01:32;31.15;;;21.33;;
64235;SDS011;50564;47.402;9.740;2022-12-07T23:06:34;30.73;;;20.15;;
64235;SDS011;50564;47.402;9.740;2022-12-07T23:11:37;34.65;;;21.23;;
64235;SDS011;50564;47.402;9.740;2022-12-07T23:16:57;29.25;;;18.02;;
64235;SDS011;50564;47.402;9.740;2022-12-07T23:21:58;30.40;;;19.95;;
64235;SDS011;50564;47.402;9.740;2022-12-07T23:26:59;34.65;;;22.58;;
64235;SDS011;50564;47.402;9.740;2022-12-07T23:31:59;34.80;;;20.92;;
64235;SDS011;50564;47.402;9.740;2022-12-07T23:37:00;28.92;;;17.67;;
64235;SDS011;50564;47.402;9.740;2022-12-07T23:42:00;22.40;;;14.15;;
64235;SDS011;50564;47.402;9.740;2022-12-07T23:47:01;25.75;;;12.80;;
64235;SDS011;50564;47.402;9.740;2022-12-07T23:52:03;22.52;;;13.45;;
64235;SDS011;50564;47.402;9.740;2022-12-07T23:57:03;18.90;;;11.43;;
